sensor_id;sensor_type;location;lat;lon;timestamp;pressure;altitude;pressure_sealevel;temperature;humidity
23172;BME280;11754;42.664;23.594;2024-03-23T00:54:20;95486.13;;;3.20;60.31
23172;BME280;11754;42.664;23.594;2024-03-23T00:56:45;95490.53;;;3.19;60.36
23172;BME280;11754;42.664;23.594;2024-03-23T00:59:11;95494.56;;;3.12;59.62
23172;BME280;11754;42.664;23.594;2024-03-23T01:01:37;95493.25;;;3.06;60.33
23172;BME280;11754;42.664;23.594;2024-03-23T01:04:02;95493.53;;;3.03;60.38
23172;BME280;11754;42.664;23.594;2024-03-23T01:06:28;95492.56;;;3.04;60.62
23172;BME280;11754;42.664;23.594;2024-03-23T01:08:53;95477.16;;;3.01;60.96
23172;BME280;11754;42.664;23.594;2024-03-23T01:11:19;95480.81;;;3.10;60.68
23172;BME280;11754;42.664;23.594;2024-03-23T01:13:44;95487.81;;;2.98;60.82
23172;BME280;11754;42.664;23.594;2024-03-23T01:16:10;95475.28;;;3.03;61.10
23172;BME280;11754;42.664;23.594;2024-03-23T01:18:35;95483.44;;;2.99;61.28
23172;BME280;11754;42.664;23.594;2024-03-23T01:21:00;95478.59;;;2.94;60.90
23172;BME280;11754;42.664;23.594;2024-03-23T01:23:26;95474.94;;;2.85;60.84
23172;BME280;11754;42.664;23.594;2024-03-23T01:25:52;95477.53;;;2.85;60.73
23172;BME280;11754;42.664;23.594;2024-03-23T01:28:20;95475.28;;;2.81;60.73
23172;BME280;11754;42.664;23.594;2024-03-23T01:30:45;95480.97;;;2.75;60.29
23172;BME280;11754;42.664;23.594;2024-03-23T01:33:11;95482.84;;;2.73;60.85
23172;BME280;11754;42.664;23.594;2024-03-23T01:35:36;95482.84;;;2.73;61.05
23172;BME280;11754;42.664;23.594;2024-03-23T01:38:02;95478.69;;;2.70;61.31
23172;BME280;11754;42.664;23.594;2024-03-23T01:40:27;95482.63;;;2.64;61.25
23172;BME280;11754;42.664;23.594;2024-03-23T01:43:07;95481.53;;;2.56;61.39
23172;BME280;11754;42.664;23.594;2024-03-23T01:45:34;95477.28;;;2.55;61.74
23172;BME280;11754;42.664;23.594;2024-03-23T01:47:59;95474.81;;;2.64;61.73
23172;BME280;11754;42.664;23.594;2024-03-23T01:50:26;95477.66;;;2.73;61.93
23172;BME280;11754;42.664;23.594;2024-03-23T01:52:52;95474.34;;;2.71;62.24
23172;BME280;11754;42.664;23.594;2024-03-23T01:55:18;95479.28;;;2.62;62.31
23172;BME280;11754;42.664;23.594;2024-03-23T01:57:44;95478.84;;;2.57;62.47
23172;BME280;11754;42.664;23.594;2024-03-23T02:00:10;95481.66;;;2.54;62.77
23172;BME280;11754;42.664;23.594;2024-03-23T02:02:42;95477.63;;;2.50;63.00
23172;BME280;11754;42.664;23.594;2024-03-23T02:05:08;95480.47;;;2.58;63.29
23172;BME280;11754;42.664;23.594;2024-03-23T02:07:33;95485.69;;;2.58;62.90
23172;BME280;11754;42.664;23.594;2024-03-23T02:10:00;95485.53;;;2.49;63.29
23172;BME280;11754;42.664;23.594;2024-03-23T02:12:26;95490.88;;;2.47;63.28
23172;BME280;11754;42.664;23.594;2024-03-23T02:14:51;95487.56;;;2.45;63.49
23172;BME280;11754;42.664;23.594;2024-03-23T02:17:17;95487.31;;;2.48;62.97
23172;BME280;11754;42.664;23.594;2024-03-23T02:19:42;95485.22;;;2.42;62.53
23172;BME280;11754;42.664;23.594;2024-03-23T02:22:07;95485.66;;;2.36;62.19
23172;BME280;11754;42.664;23.594;2024-03-23T02:24:35;95490.50;;;2.29;62.66
23172;BME280;11754;42.664;23.594;2024-03-23T02:27:02;95493.69;;;2.22;62.67
23172;BME280;11754;42.664;23.594;2024-03-23T02:29:28;95494.72;;;2.19;62.88
23172;BME280;11754;42.664;23.594;2024-03-23T02:31:53;95497.91;;;2.11;62.73
23172;BME280;11754;42.664;23.594;2024-03-23T02:34:19;95494.31;;;2.01;63.37
23172;BME280;11754;42.664;23.594;2024-03-23T02:36:44;95488.03;;;1.92;63.10
23172;BME280;11754;42.664;23.594;2024-03-23T02:39:09;95489.09;;;1.90;63.20
23172;BME280;11754;42.664;23.594;2024-03-23T02:41:35;95493.06;;;1.83;63.41
23172;BME280;11754;42.664;23.594;2024-03-23T02:44:01;95486.44;;;1.79;63.74
23172;BME280;11754;42.664;23.594;2024-03-23T02:46:27;95492.97;;;1.84;63.75
23172;BME280;11754;42.664;23.594;2024-03-23T02:48:52;95487.28;;;1.79;63.88
23172;BME280;11754;42.664;23.594;2024-03-23T02:51:18;95477.91;;;1.77;64.19
23172;BME280;11754;42.664;23.594;2024-03-23T02:53:43;95489.28;;;1.76;64.48
23172;BME280;11754;42.664;23.594;2024-03-23T02:56:08;95488.78;;;1.71;64.36
23172;BME280;11754;42.664;23.594;2024-03-23T02:58:34;95488.88;;;1.69;64.50
23172;BME280;11754;42.664;23.594;2024-03-23T03:00:59;95486.88;;;1.73;64.68
23172;BME280;11754;42.664;23.594;2024-03-23T03:03:25;95487.28;;;1.79;64.81
23172;BME280;11754;42.664;23.594;2024-03-23T03:05:56;95491.44;;;1.82;64.52
23172;BME280;11754;42.664;23.594;2024-03-23T03:08:22;95486.22;;;1.82;64.60
23172;BME280;11754;42.664;23.594;2024-03-23T03:10:47;95485.06;;;1.86;64.78
23172;BME280;11754;42.664;23.594;2024-03-23T03:13:13;95488.13;;;1.91;64.39
23172;BME280;11754;42.664;23.594;2024-03-23T03:15:43;95487.44;;;1.89;64.32
23172;BME280;11754;42.664;23.594;2024-03-23T03:18:08;95485.41;;;1.81;64.31
23172;BME280;11754;42.664;23.594;2024-03-23T03:20:38;95492.09;;;1.73;64.21
23172;BME280;11754;42.664;23.594;2024-03-23T03:23:04;95486.88;;;1.73;64.29
23172;BME280;11754;42.664;23.594;2024-03-23T03:25:29;95498.59;;;1.67;64.19
23172;BME280;11754;42.664;23.594;2024-03-23T03:27:55;95494.34;;;1.66;64.43
23172;BME280;11754;42.664;23.594;2024-03-23T03:30:20;95498.38;;;1.70;64.33
23172;BME280;11754;42.664;23.594;2024-03-23T03:32:46;95494.78;;;1.60;64.13
23172;BME280;11754;42.664;23.594;2024-03-23T03:35:11;95494.16;;;1.56;64.30
23172;BME280;11754;42.664;23.594;2024-03-23T03:37:37;95499.09;;;1.48;64.21
23172;BME280;11754;42.664;23.594;2024-03-23T03:40:02;95499.50;;;1.42;64.17
23172;BME280;11754;42.664;23.594;2024-03-23T03:42:28;95494.13;;;1.32;64.10
23172;BME280;11754;42.664;23.594;2024-03-23T03:44:54;95500.16;;;1.33;64.38
23172;BME280;11754;42.664;23.594;2024-03-23T03:47:19;95501.31;;;1.29;64.47
23172;BME280;11754;42.664;23.594;2024-03-23T03:49:44;95500.38;;;1.30;64.40
23172;BME280;11754;42.664;23.594;2024-03-23T03:52:10;95500.63;;;1.27;64.82
23172;BME280;11754;42.664;23.594;2024-03-23T03:54:36;95510.06;;;1.28;64.60
23172;BME280;11754;42.664;23.594;2024-03-23T03:57:01;95499.75;;;1.26;64.77
23172;BME280;11754;42.664;23.594;2024-03-23T03:59:27;95501.59;;;1.37;64.81
23172;BME280;11754;42.664;23.594;2024-03-23T04:01:52;95496.47;;;1.24;64.93
23172;BME280;11754;42.664;23.594;2024-03-23T04:04:18;95498.22;;;1.24;65.13
23172;BME280;11754;42.664;23.594;2024-03-23T04:06:43;95497.56;;;1.33;65.22
23172;BME280;11754;42.664;23.594;2024-03-23T04:09:09;95495.31;;;1.28;64.98
23172;BME280;11754;42.664;23.594;2024-03-23T04:11:35;95497.28;;;1.25;65.49
23172;BME280;11754;42.664;23.594;2024-03-23T04:14:01;95493.75;;;1.26;65.43
23172;BME280;11754;42.664;23.594;2024-03-23T04:16:35;95498.31;;;1.22;65.83
23172;BME280;11754;42.664;23.594;2024-03-23T04:19:01;95502.19;;;1.16;65.88
23172;BME280;11754;42.664;23.594;2024-03-23T04:21:27;95501.19;;;1.06;66.35
23172;BME280;11754;42.664;23.594;2024-03-23T04:23:52;95506.16;;;1.09;66.26
23172;BME280;11754;42.664;23.594;2024-03-23T04:26:18;95506.25;;;1.20;66.23
23172;BME280;11754;42.664;23.594;2024-03-23T04:28:43;95508.47;;;1.38;66.18
23172;BME280;11754;42.664;23.594;2024-03-23T04:31:09;95509.41;;;1.37;66.13
23172;BME280;11754;42.664;23.594;2024-03-23T04:33:34;95505.34;;;1.33;66.18
23172;BME280;11754;42.664;23.594;2024-03-23T04:36:00;95505.66;;;1.41;66.51
23172;BME280;11754;42.664;23.594;2024-03-23T04:38:25;95503.34;;;1.49;66.46
23172;BME280;11754;42.664;23.594;2024-03-23T04:41:08;95518.38;;;1.57;66.54
23172;BME280;11754;42.664;23.594;2024-03-23T04:43:34;95511.13;;;1.49;66.52
23172;BME280;11754;42.664;23.594;2024-03-23T04:45:59;95510.03;;;1.64;66.23
23172;BME280;11754;42.664;23.594;2024-03-23T04:48:25;95503.06;;;1.65;65.79
23172;BME280;11754;42.664;23.594;2024-03-23T04:50:55;95506.59;;;1.64;65.65
23172;BME280;11754;42.664;23.594;2024-03-23T04:53:23;95517.88;;;1.76;66.06
23172;BME280;11754;42.664;23.594;2024-03-23T04:55:53;95516.03;;;1.89;65.48
23172;BME280;11754;42.664;23.594;2024-03-23T04:58:18;95520.03;;;2.06;65.02
23172;BME280;11754;42.664;23.594;2024-03-23T05:00:44;95514.94;;;2.15;64.47
23172;BME280;11754;42.664;23.594;2024-03-23T05:03:09;95518.44;;;2.27;63.84
23172;BME280;11754;42.664;23.594;2024-03-23T05:05:34;95522.56;;;2.30;63.94
23172;BME280;11754;42.664;23.594;2024-03-23T05:08:00;95526.13;;;2.29;64.00
23172;BME280;11754;42.664;23.594;2024-03-23T05:10:25;95525.66;;;2.35;64.31
23172;BME280;11754;42.664;23.594;2024-03-23T05:12:51;95520.94;;;2.51;63.89
23172;BME280;11754;42.664;23.594;2024-03-23T05:15:16;95519.66;;;2.57;64.07
23172;BME280;11754;42.664;23.594;2024-03-23T05:17:42;95520.63;;;2.67;63.50
23172;BME280;11754;42.664;23.594;2024-03-23T05:20:07;95524.31;;;2.76;62.98
23172;BME280;11754;42.664;23.594;2024-03-23T05:22:35;95517.66;;;2.83;62.96
23172;BME280;11754;42.664;23.594;2024-03-23T05:25:01;95524.06;;;3.01;62.74
23172;BME280;11754;42.664;23.594;2024-03-23T05:27:30;95505.81;;;3.12;62.32
23172;BME280;11754;42.664;23.594;2024-03-23T05:29:55;95511.97;;;3.23;61.60
23172;BME280;11754;42.664;23.594;2024-03-23T05:32:20;95519.53;;;3.37;61.13
23172;BME280;11754;42.664;23.594;2024-03-23T05:34:46;95509.81;;;3.50;60.59
23172;BME280;11754;42.664;23.594;2024-03-23T05:37:11;95514.50;;;3.56;60.24
23172;BME280;11754;42.664;23.594;2024-03-23T05:39:37;95512.03;;;3.55;59.97
23172;BME280;11754;42.664;23.594;2024-03-23T05:42:02;95516.28;;;3.56;60.21
23172;BME280;11754;42.664;23.594;2024-03-23T05:44:27;95512.13;;;3.65;59.77
23172;BME280;11754;42.664;23.594;2024-03-23T05:46:53;95512.97;;;3.65;59.64
23172;BME280;11754;42.664;23.594;2024-03-23T05:49:19;95508.28;;;3.80;59.87
23172;BME280;11754;42.664;23.594;2024-03-23T05:51:45;95502.06;;;3.92;59.40
23172;BME280;11754;42.664;23.594;2024-03-23T05:54:10;95505.47;;;4.04;59.76
23172;BME280;11754;42.664;23.594;2024-03-23T05:56:35;95500.50;;;4.22;59.60
23172;BME280;11754;42.664;23.594;2024-03-23T05:59:01;95503.38;;;4.40;58.17
23172;BME280;11754;42.664;23.594;2024-03-23T06:01:28;95501.28;;;4.54;57.40
23172;BME280;11754;42.664;23.594;2024-03-23T06:03:54;95495.03;;;4.67;57.97
23172;BME280;11754;42.664;23.594;2024-03-23T06:06:19;95488.16;;;4.75;57.92
23172;BME280;11754;42.664;23.594;2024-03-23T06:08:45;95489.38;;;4.92;57.17
23172;BME280;11754;42.664;23.594;2024-03-23T06:11:10;95491.78;;;5.15;56.59
23172;BME280;11754;42.664;23.594;2024-03-23T06:13:35;95487.81;;;5.30;55.84
23172;BME280;11754;42.664;23.594;2024-03-23T06:16:01;95493.13;;;5.49;55.95
23172;BME280;11754;42.664;23.594;2024-03-23T06:18:27;95489.84;;;5.67;55.55
23172;BME280;11754;42.664;23.594;2024-03-23T06:20:53;95492.88;;;5.91;54.99
23172;BME280;11754;42.664;23.594;2024-03-23T06:23:19;95487.44;;;6.14;53.41
23172;BME280;11754;42.664;23.594;2024-03-23T06:25:46;95491.81;;;6.42;52.36
23172;BME280;11754;42.664;23.594;2024-03-23T06:28:11;95496.47;;;6.58;52.11
23172;BME280;11754;42.664;23.594;2024-03-23T06:30:37;95497.81;;;6.72;51.84
23172;BME280;11754;42.664;23.594;2024-03-23T06:33:02;95493.88;;;6.95;51.19
23172;BME280;11754;42.664;23.594;2024-03-23T06:35:28;95487.59;;;7.16;50.41
23172;BME280;11754;42.664;23.594;2024-03-23T06:37:53;95491.72;;;7.46;49.47
23172;BME280;11754;42.664;23.594;2024-03-23T06:40:19;95489.88;;;7.74;49.19
23172;BME280;11754;42.664;23.594;2024-03-23T06:42:44;95493.44;;;7.83;48.61
23172;BME280;11754;42.664;23.594;2024-03-23T06:45:09;95488.84;;;8.03;48.56
23172;BME280;11754;42.664;23.594;2024-03-23T06:47:35;95495.31;;;8.26;47.46
23172;BME280;11754;42.664;23.594;2024-03-23T06:50:03;95481.34;;;8.43;47.16
23172;BME280;11754;42.664;23.594;2024-03-23T06:52:29;95489.28;;;8.70;47.46
23172;BME280;11754;42.664;23.594;2024-03-23T06:54:54;95491.22;;;8.94;47.36
23172;BME280;11754;42.664;23.594;2024-03-23T06:57:20;95485.25;;;9.18;46.66
23172;BME280;11754;42.664;23.594;2024-03-23T06:59:45;95485.84;;;9.37;46.58
23172;BME280;11754;42.664;23.594;2024-03-23T07:02:11;95479.69;;;9.63;45.24
23172;BME280;11754;42.664;23.594;2024-03-23T07:04:36;95479.41;;;9.82;45.17
23172;BME280;11754;42.664;23.594;2024-03-23T07:07:02;95475.16;;;10.06;44.42
23172;BME280;11754;42.664;23.594;2024-03-23T07:16:30;95459.00;;;10.01;43.55
23172;BME280;11754;42.664;23.594;2024-03-23T07:18:55;95463.66;;;10.15;43.21
23172;BME280;11754;42.664;23.594;2024-03-23T07:21:21;95463.34;;;10.34;42.97
23172;BME280;11754;42.664;23.594;2024-03-23T07:23:47;95452.63;;;10.61;42.67
23172;BME280;11754;42.664;23.594;2024-03-23T07:26:12;95458.66;;;10.94;41.72
23172;BME280;11754;42.664;23.594;2024-03-23T07:28:38;95449.72;;;11.11;40.93
23172;BME280;11754;42.664;23.594;2024-03-23T07:31:13;95442.53;;;11.36;41.00
23172;BME280;11754;42.664;23.594;2024-03-23T07:33:45;95442.72;;;11.66;40.53
23172;BME280;11754;42.664;23.594;2024-03-23T07:36:10;95439.00;;;11.83;40.64
23172;BME280;11754;42.664;23.594;2024-03-23T07:38:36;95431.03;;;12.14;40.67
23172;BME280;11754;42.664;23.594;2024-03-23T07:41:06;95432.94;;;12.43;38.93
23172;BME280;11754;42.664;23.594;2024-03-23T07:43:31;95432.25;;;12.64;39.20
23172;BME280;11754;42.664;23.594;2024-03-23T07:45:57;95436.75;;;12.79;38.50
23172;BME280;11754;42.664;23.594;2024-03-23T07:48:23;95429.94;;;12.99;37.84
23172;BME280;11754;42.664;23.594;2024-03-23T07:51:08;95432.38;;;13.15;37.36
23172;BME280;11754;42.664;23.594;2024-03-23T07:53:34;95428.31;;;13.28;36.99
23172;BME280;11754;42.664;23.594;2024-03-23T07:56:10;95426.56;;;13.35;36.90
23172;BME280;11754;42.664;23.594;2024-03-23T07:58:36;95421.22;;;13.64;36.35
23172;BME280;11754;42.664;23.594;2024-03-23T08:01:10;95418.28;;;13.59;36.28
23172;BME280;11754;42.664;23.594;2024-03-23T08:03:36;95417.72;;;13.79;36.06
23172;BME280;11754;42.664;23.594;2024-03-23T08:08:37;95413.41;;;14.21;35.86
23172;BME280;11754;42.664;23.594;2024-03-23T08:11:03;95411.41;;;14.23;35.26
23172;BME280;11754;42.664;23.594;2024-03-23T08:13:29;95415.47;;;14.18;35.54
23172;BME280;11754;42.664;23.594;2024-03-23T08:15:59;95410.75;;;14.42;35.79
23172;BME280;11754;42.664;23.594;2024-03-23T08:18:25;95409.03;;;14.77;35.05
23172;BME280;11754;42.664;23.594;2024-03-23T08:21:01;95406.91;;;14.94;35.33
23172;BME280;11754;42.664;23.594;2024-03-23T08:23:28;95417.91;;;15.26;34.89
23172;BME280;11754;42.664;23.594;2024-03-23T08:26:00;95404.03;;;15.30;34.22
23172;BME280;11754;42.664;23.594;2024-03-23T08:28:27;95409.31;;;15.24;35.01
23172;BME280;11754;42.664;23.594;2024-03-23T08:30:53;95407.34;;;15.46;34.83
23172;BME280;11754;42.664;23.594;2024-03-23T08:33:19;95406.59;;;15.58;34.65
23172;BME280;11754;42.664;23.594;2024-03-23T08:35:54;95392.03;;;16.02;34.22
23172;BME280;11754;42.664;23.594;2024-03-23T08:38:20;95396.34;;;16.17;34.12
23172;BME280;11754;42.664;23.594;2024-03-23T08:40:46;95398.19;;;16.69;33.66
23172;BME280;11754;42.664;23.594;2024-03-23T08:43:11;95392.66;;;16.97;32.77
23172;BME280;11754;42.664;23.594;2024-03-23T08:45:37;95388.28;;;17.29;32.15
23172;BME280;11754;42.664;23.594;2024-03-23T08:48:02;95395.09;;;17.70;31.21
23172;BME280;11754;42.664;23.594;2024-03-23T08:50:28;95379.22;;;18.20;29.83
23172;BME280;11754;42.664;23.594;2024-03-23T08:52:53;95377.00;;;18.42;30.39
23172;BME280;11754;42.664;23.594;2024-03-23T08:55:18;95375.16;;;18.18;30.68
23172;BME280;11754;42.664;23.594;2024-03-23T08:57:44;95366.34;;;18.42;30.58
23172;BME280;11754;42.664;23.594;2024-03-23T09:00:10;95376.72;;;18.57;29.19
23172;BME280;11754;42.664;23.594;2024-03-23T09:02:37;95355.81;;;19.16;28.53
23172;BME280;11754;42.664;23.594;2024-03-23T09:05:02;95349.28;;;19.67;28.80
23172;BME280;11754;42.664;23.594;2024-03-23T09:07:32;95345.03;;;20.20;28.41
23172;BME280;11754;42.664;23.594;2024-03-23T09:09:57;95345.97;;;20.67;27.83
23172;BME280;11754;42.664;23.594;2024-03-23T09:12:23;95341.06;;;20.64;27.30
23172;BME280;11754;42.664;23.594;2024-03-23T09:14:50;95331.81;;;21.71;26.34
23172;BME280;11754;42.664;23.594;2024-03-23T09:17:15;95331.09;;;22.33;26.25
23172;BME280;11754;42.664;23.594;2024-03-23T09:19:40;95320.78;;;22.97;24.45
23172;BME280;11754;42.664;23.594;2024-03-23T09:22:06;95313.72;;;24.01;23.10
23172;BME280;11754;42.664;23.594;2024-03-23T09:24:31;95313.22;;;24.31;22.31
23172;BME280;11754;42.664;23.594;2024-03-23T09:26:57;95308.13;;;25.67;20.98
23172;BME280;11754;42.664;23.594;2024-03-23T09:29:23;95302.38;;;26.72;19.74
23172;BME280;11754;42.664;23.594;2024-03-23T09:31:48;95288.63;;;28.13;18.60
23172;BME280;11754;42.664;23.594;2024-03-23T09:34:14;95287.91;;;29.05;18.22
23172;BME280;11754;42.664;23.594;2024-03-23T09:36:39;95285.59;;;29.41;17.39
23172;BME280;11754;42.664;23.594;2024-03-23T09:39:06;95281.53;;;30.25;17.23
23172;BME280;11754;42.664;23.594;2024-03-23T09:41:31;95265.66;;;31.94;15.88
23172;BME280;11754;42.664;23.594;2024-03-23T09:43:57;95268.09;;;32.54;15.31
23172;BME280;11754;42.664;23.594;2024-03-23T09:46:22;95256.84;;;34.06;13.62
23172;BME280;11754;42.664;23.594;2024-03-23T09:48:48;95255.13;;;35.56;12.75
23172;BME280;11754;42.664;23.594;2024-03-23T09:51:14;95240.47;;;36.78;11.77
23172;BME280;11754;42.664;23.594;2024-03-23T09:53:39;95231.66;;;38.04;11.01
23172;BME280;11754;42.664;23.594;2024-03-23T09:56:05;95236.19;;;39.24;10.58
23172;BME280;11754;42.664;23.594;2024-03-23T09:58:30;95229.19;;;39.94;10.16
23172;BME280;11754;42.664;23.594;2024-03-23T10:00:57;95222.63;;;41.18;9.49
23172;BME280;11754;42.664;23.594;2024-03-23T10:03:23;95210.19;;;42.08;8.82
23172;BME280;11754;42.664;23.594;2024-03-23T10:06:00;95210.84;;;42.95;8.88
23172;BME280;11754;42.664;23.594;2024-03-23T10:08:26;95206.38;;;43.72;8.11
23172;BME280;11754;42.664;23.594;2024-03-23T10:10:53;95198.97;;;44.74;7.69
23172;BME280;11754;42.664;23.594;2024-03-23T10:13:26;95197.50;;;45.56;7.40
23172;BME280;11754;42.664;23.594;2024-03-23T10:15:59;95192.59;;;46.28;6.83
23172;BME280;11754;42.664;23.594;2024-03-23T10:18:25;95188.06;;;47.25;6.52
23172;BME280;11754;42.664;23.594;2024-03-23T10:23:31;95177.47;;;49.45;5.42
23172;BME280;11754;42.664;23.594;2024-03-23T10:26:17;95164.91;;;50.40;5.12
23172;BME280;11754;42.664;23.594;2024-03-23T10:31:21;95162.84;;;50.81;4.91
23172;BME280;11754;42.664;23.594;2024-03-23T10:33:47;95157.72;;;51.90;4.87
23172;BME280;11754;42.664;23.594;2024-03-23T10:36:13;95156.03;;;52.51;4.36
23172;BME280;11754;42.664;23.594;2024-03-23T10:38:43;95151.50;;;52.70;3.97
23172;BME280;11754;42.664;23.594;2024-03-23T10:41:09;95150.56;;;52.73;4.33
23172;BME280;11754;42.664;23.594;2024-03-23T10:43:37;95140.00;;;53.28;4.00
23172;BME280;11754;42.664;23.594;2024-03-23T10:46:03;95133.84;;;53.68;4.18
23172;BME280;11754;42.664;23.594;2024-03-23T10:48:29;95115.44;;;54.20;3.93
23172;BME280;11754;42.664;23.594;2024-03-23T10:50:54;95129.47;;;54.55;3.71
23172;BME280;11754;42.664;23.594;2024-03-23T10:53:22;95127.16;;;54.93;3.52
23172;BME280;11754;42.664;23.594;2024-03-23T10:55:50;95111.91;;;55.40;3.60
23172;BME280;11754;42.664;23.594;2024-03-23T10:58:18;95102.53;;;55.71;3.24
23172;BME280;11754;42.664;23.594;2024-03-23T11:00:46;95105.69;;;55.92;3.62
23172;BME280;11754;42.664;23.594;2024-03-23T11:03:31;95096.69;;;56.21;3.22
23172;BME280;11754;42.664;23.594;2024-03-23T11:05:57;95086.31;;;56.78;2.83
23172;BME280;11754;42.664;23.594;2024-03-23T11:08:36;95072.13;;;57.36;3.03
23172;BME280;11754;42.664;23.594;2024-03-23T11:13:40;95069.06;;;57.24;3.01
23172;BME280;11754;42.664;23.594;2024-03-23T11:18:50;95052.78;;;56.34;3.19
23172;BME280;11754;42.664;23.594;2024-03-23T11:21:53;95048.72;;;57.02;3.05
23172;BME280;11754;42.664;23.594;2024-03-23T11:24:20;95051.19;;;56.33;3.00
23172;BME280;11754;42.664;23.594;2024-03-23T11:26:46;95047.13;;;57.10;2.63
23172;BME280;11754;42.664;23.594;2024-03-23T11:29:13;95035.69;;;57.67;2.69
23172;BME280;11754;42.664;23.594;2024-03-23T11:31:39;95030.03;;;58.27;2.58
23172;BME280;11754;42.664;23.594;2024-03-23T11:34:10;95020.19;;;58.37;2.72
23172;BME280;11754;42.664;23.594;2024-03-23T11:36:36;95022.69;;;58.85;2.19
23172;BME280;11754;42.664;23.594;2024-03-23T11:39:14;95013.97;;;58.53;2.92
23172;BME280;11754;42.664;23.594;2024-03-23T11:41:59;95011.09;;;59.03;2.38
23172;BME280;11754;42.664;23.594;2024-03-23T11:44:26;95007.69;;;59.40;2.47
23172;BME280;11754;42.664;23.594;2024-03-23T11:46:53;95000.81;;;59.73;1.99
23172;BME280;11754;42.664;23.594;2024-03-23T11:49:29;94995.34;;;59.23;1.88
23172;BME280;11754;42.664;23.594;2024-03-23T11:51:56;94985.88;;;57.27;2.41
23172;BME280;11754;42.664;23.594;2024-03-23T11:54:25;94984.72;;;55.31;3.00
23172;BME280;11754;42.664;23.594;2024-03-23T11:57:00;94980.69;;;56.54;2.27
23172;BME280;11754;42.664;23.594;2024-03-23T12:01:57;94971.50;;;58.44;2.24
23172;BME280;11754;42.664;23.594;2024-03-23T12:04:27;94967.91;;;59.20;2.06
23172;BME280;11754;42.664;23.594;2024-03-23T12:07:18;94952.97;;;59.25;2.08
23172;BME280;11754;42.664;23.594;2024-03-23T12:09:45;94948.97;;;59.37;1.84
23172;BME280;11754;42.664;23.594;2024-03-23T12:12:17;94955.94;;;59.82;1.64
23172;BME280;11754;42.664;23.594;2024-03-23T12:14:44;94940.72;;;60.54;1.66
23172;BME280;11754;42.664;23.594;2024-03-23T12:17:10;94947.38;;;60.08;1.83
23172;BME280;11754;42.664;23.594;2024-03-23T12:19:35;94941.13;;;60.79;2.03
23172;BME280;11754;42.664;23.594;2024-03-23T12:22:03;94930.19;;;61.32;1.55
23172;BME280;11754;42.664;23.594;2024-03-23T12:24:29;94939.94;;;61.02;1.28
23172;BME280;11754;42.664;23.594;2024-03-23T12:26:54;94929.56;;;60.51;1.24
23172;BME280;11754;42.664;23.594;2024-03-23T12:29:20;94924.75;;;60.74;1.66
23172;BME280;11754;42.664;23.594;2024-03-23T12:31:46;94909.97;;;61.24;1.19
23172;BME280;11754;42.664;23.594;2024-03-23T12:34:11;94920.19;;;60.45;1.65
23172;BME280;11754;42.664;23.594;2024-03-23T12:36:37;94915.53;;;59.26;1.84
23172;BME280;11754;42.664;23.594;2024-03-23T12:39:02;94910.59;;;58.86;2.01
23172;BME280;11754;42.664;23.594;2024-03-23T12:41:27;94899.88;;;59.16;2.10
23172;BME280;11754;42.664;23.594;2024-03-23T12:43:53;94900.91;;;59.65;2.00
23172;BME280;11754;42.664;23.594;2024-03-23T12:46:18;94893.69;;;60.27;2.10
23172;BME280;11754;42.664;23.594;2024-03-23T12:48:44;94897.13;;;60.91;1.48
23172;BME280;11754;42.664;23.594;2024-03-23T12:51:10;94887.19;;;61.46;2.02
23172;BME280;11754;42.664;23.594;2024-03-23T12:53:35;94885.91;;;61.47;1.85
23172;BME280;11754;42.664;23.594;2024-03-23T12:56:01;94885.91;;;61.53;1.83
23172;BME280;11754;42.664;23.594;2024-03-23T12:58:26;94878.41;;;61.67;1.82
23172;BME280;11754;42.664;23.594;2024-03-23T13:00:52;94875.81;;;61.91;1.40
23172;BME280;11754;42.664;23.594;2024-03-23T13:03:17;94866.44;;;61.40;1.29
23172;BME280;11754;42.664;23.594;2024-03-23T13:05:43;94859.97;;;61.68;1.37
23172;BME280;11754;42.664;23.594;2024-03-23T13:08:08;94861.28;;;62.12;1.64
23172;BME280;11754;42.664;23.594;2024-03-23T13:10:33;94857.59;;;62.28;1.28
23172;BME280;11754;42.664;23.594;2024-03-23T13:12:59;94846.25;;;61.72;1.67
23172;BME280;11754;42.664;23.594;2024-03-23T13:15:24;94851.41;;;61.68;1.81
23172;BME280;11754;42.664;23.594;2024-03-23T13:17:49;94841.31;;;62.01;1.41
23172;BME280;11754;42.664;23.594;2024-03-23T13:20:15;94837.41;;;62.15;1.51
23172;BME280;11754;42.664;23.594;2024-03-23T13:22:41;94840.00;;;62.13;1.33
23172;BME280;11754;42.664;23.594;2024-03-23T13:25:07;94823.41;;;61.78;1.15
23172;BME280;11754;42.664;23.594;2024-03-23T13:27:33;94821.84;;;61.60;1.50
23172;BME280;11754;42.664;23.594;2024-03-23T13:29:58;94827.50;;;61.15;1.74
23172;BME280;11754;42.664;23.594;2024-03-23T13:32:24;94825.16;;;61.08;1.91
23172;BME280;11754;42.664;23.594;2024-03-23T13:34:49;94820.72;;;60.95;1.66
23172;BME280;11754;42.664;23.594;2024-03-23T13:37:15;94817.19;;;60.52;1.80
23172;BME280;11754;42.664;23.594;2024-03-23T13:39:41;94813.94;;;60.87;1.35
23172;BME280;11754;42.664;23.594;2024-03-23T13:42:09;94803.56;;;60.84;1.71
23172;BME280;11754;42.664;23.594;2024-03-23T13:44:35;94811.38;;;60.89;1.97
23172;BME280;11754;42.664;23.594;2024-03-23T13:47:01;94804.75;;;60.55;1.84
23172;BME280;11754;42.664;23.594;2024-03-23T13:49:29;94797.94;;;61.07;1.65
23172;BME280;11754;42.664;23.594;2024-03-23T13:51:57;94799.03;;;61.71;1.50
23172;BME280;11754;42.664;23.594;2024-03-23T13:54:26;94801.34;;;61.11;1.49
23172;BME280;11754;42.664;23.594;2024-03-23T13:56:53;94792.22;;;60.95;1.73
23172;BME280;11754;42.664;23.594;2024-03-23T13:59:19;94786.22;;;60.82;1.59
23172;BME280;11754;42.664;23.594;2024-03-23T14:01:45;94786.75;;;60.92;1.92
23172;BME280;11754;42.664;23.594;2024-03-23T14:04:11;94783.94;;;61.09;1.91
23172;BME280;11754;42.664;23.594;2024-03-23T14:06:37;94790.59;;;60.18;2.07
23172;BME280;11754;42.664;23.594;2024-03-23T14:09:02;94786.16;;;59.42;1.70
23172;BME280;11754;42.664;23.594;2024-03-23T14:11:29;94783.13;;;59.83;1.79